Time;durP1;ratioP1;P1;durP2;ratioP2;P2;SDS_P1;SDS_P2;PMS_P1;PMS_P2;Temp;Humidity;BMP_temperature;BMP_pressure;BME280_temperature;BME280_humidity;BME280_pressure;Samples;Min_cycle;Max_cycle;Signal;HPM_P1;HPM_P2
2023/05/16 00:01:29;;;;;;;21.70;16.00;;;;;;;8.61;82.97;99586.34;124287;1274;5529641;-73
2023/05/16 00:05:32;;;;;;;21.50;16.20;;;;;;;8.57;82.68;99593.16;127625;1286;114882;-70
2023/05/16 00:09:36;;;;;;;18.80;16.00;;;;;;;8.51;82.78;99594.84;126561;1293;114935;-66
2023/05/16 00:13:41;;;;;;;20.60;15.60;;;;;;;8.47;82.76;99597.36;125619;1302;127744;-68
2023/05/16 00:22:00;;;;;;;;;;;;;;;;;;;;;
2023/05/16 00:26:04;;;;;;;17.90;15.20;;;;;;;8.35;82.52;99603.13;128481;1298;128581;-74
2023/05/16 00:34:10;;;;;;;26.20;16.50;;;;;;;8.27;82.88;99603.58;122932;1290;5422661;-74
2023/05/16 00:38:11;;;;;;;19.10;15.90;;;;;;;8.25;82.89;99606.88;126323;1296;114897;-77
2023/05/16 00:42:12;;;;;;;19.40;13.90;;;;;;;8.22;83.24;99610.77;125770;1320;115320;-76
2023/05/16 00:46:14;;;;;;;20.90;14.80;;;;;;;8.19;83.49;99613.92;125192;1305;128879;-77
2023/05/16 00:54:48;;;;;;;18.60;16.10;;;;;;;8.16;83.40;99612.80;125902;1300;652289;-66
2023/05/16 00:58:50;;;;;;;17.30;15.40;;;;;;;8.13;83.45;99612.41;128187;1300;128122;-69
2023/05/16 01:02:51;;;;;;;;;;;;;;;;;;;;;
2023/05/16 01:06:54;;;;;;;16.70;14.10;;;;;;;8.03;83.46;99611.84;122582;1296;5419301;-66
2023/05/16 01:15:08;;;;;;;18.10;14.70;;;;;;;7.95;83.48;99617.09;124810;1324;114885;-68
2023/05/16 01:19:15;;;;;;;19.40;15.00;;;;;;;7.90;83.53;99616.39;124927;1312;114992;-64
2023/05/16 01:31:19;;;;;;;19.30;15.00;;;;;;;7.75;83.55;99635.45;124224;1317;114885;-75
2023/05/16 01:35:11;;;;;;;21.10;14.70;;;;;;;7.71;83.57;99632.28;123706;1322;114985;-73
2023/05/16 01:39:26;;;;;;;19.00;15.80;;;;;;;7.68;83.75;99631.69;123823;1319;114810;-74
2023/05/16 01:47:29;;;;;;;19.30;16.00;;;;;;;7.61;83.68;99642.16;124223;1316;115504;-76
2023/05/16 01:56:04;;;;;;;22.00;16.20;;;;;;;7.57;83.68;99653.39;126065;1299;639328;-71
2023/05/16 02:00:07;;;;;;;16.80;15.10;;;;;;;7.51;83.61;99650.64;128169;1284;128826;-66
2023/05/16 02:08:13;;;;;;;18.10;15.10;;;;;;;7.45;83.76;99666.55;122870;1312;5489337;-68
2023/05/16 02:12:07;;;;;;;16.90;14.70;;;;;;;7.42;83.75;99669.02;125160;1305;114822;-68
2023/05/16 02:24:44;;;;;;;19.90;17.50;;;;;;;7.37;84.26;99676.36;127549;1288;127808;-75
2023/05/16 02:28:48;;;;;;;18.70;16.70;;;;;;;7.35;84.19;99675.39;126565;1295;114834;-75
2023/05/16 02:32:48;;;;;;;19.80;17.10;;;;;;;7.33;84.25;99674.38;122051;1300;5438630;-75
2023/05/16 02:36:50;;;;;;;22.30;17.50;;;;;;;7.33;84.31;99672.45;124412;1316;114932;-76
2023/05/16 02:45:17;;;;;;;18.90;17.00;;;;;;;7.35;84.70;99661.50;125671;1312;638692;-76
2023/05/16 02:49:20;;;;;;;20.10;17.90;;;;;;;7.36;84.84;99666.42;127649;1281;128920;-76
2023/05/16 02:53:22;;;;;;;20.00;17.80;;;;;;;7.40;85.27;99675.11;127656;1297;114699;-72
2023/05/16 02:57:25;;;;;;;19.90;17.90;;;;;;;7.44;85.45;99681.17;123174;1289;5439459;-75
2023/05/16 03:05:27;;;;;;;22.30;18.50;;;;;;;7.53;85.76;99673.09;125419;1307;116092;-70
2023/05/16 03:13:59;;;;;;;26.40;19.80;;;;;;;7.67;85.78;99679.57;125810;1298;642090;-73
2023/05/16 03:18:01;;;;;;;21.80;17.70;;;;;;;7.73;85.97;99686.05;127974;1284;129922;-69
2023/05/16 03:22:05;;;;;;;22.50;19.00;;;;;;;7.78;86.29;99684.73;126390;1312;115416;-68
2023/05/16 03:26:06;;;;;;;23.10;16.70;;;;;;;7.84;86.09;99688.20;122165;1298;5481547;-72
2023/05/16 03:38:43;;;;;;;23.60;20.90;;;;;;;8.11;86.51;99688.63;125796;1311;638509;-74
2023/05/16 03:51:01;;;;;;;;;;;;;;;;;;;;;
2023/05/16 03:59:18;;;;;;;26.10;19.90;;;;;;;8.69;86.96;99710.69;121817;1305;5491080;-75
2023/05/16 04:07:53;;;;;;;28.70;21.20;;;;;;;9.03;87.35;99722.70;125714;1303;638535;-77
2023/05/16 04:11:55;;;;;;;22.90;18.60;;;;;;;9.19;87.27;99735.38;128214;1276;128918;-76
2023/05/16 04:20:02;;;;;;;24.20;19.40;;;;;;;9.51;87.48;99757.70;122114;1286;7487161;-76
2023/05/16 04:24:03;;;;;;;23.00;17.80;;;;;;;9.68;87.50;99760.92;126568;1301;114856;-75
2023/05/16 04:28:05;;;;;;;23.00;18.60;;;;;;;9.83;87.50;99764.72;125475;1324;114945;-75
2023/05/16 04:36:40;;;;;;;24.70;20.20;;;;;;;10.25;87.70;99784.14;125872;1299;638478;-73
2023/05/16 04:40:42;;;;;;;27.30;18.40;;;;;;;10.60;88.21;99793.31;126647;1293;127961;-73
2023/05/16 04:48:37;;;;;;;17.60;14.60;;;;;;;12.82;91.52;99771.44;121223;1305;5431482;-73
2023/05/16 04:57:10;;;;;;;19.60;15.30;;;;;;;15.32;87.78;99732.39;125895;1311;638600;-75
2023/05/16 05:01:13;;;;;;;14.90;13.10;;;;;;;16.69;86.48;99749.30;128875;1272;128038;-75
2023/05/16 05:05:16;;;;;;;15.50;12.50;;;;;;;17.94;84.34;99749.80;128164;1283;115232;-75
2023/05/16 05:09:18;;;;;;;12.80;11.20;;;;;;;19.00;81.51;99758.84;123097;1309;5437188;-77
2023/05/16 05:13:19;;;;;;;12.20;10.70;;;;;;;19.74;78.96;99767.23;125486;1304;115099;-77
2023/05/16 05:21:38;;;;;;;11.70;8.70;;;;;;;20.79;74.93;99795.87;126706;1299;635973;-76
2023/05/16 05:25:41;;;;;;;10.10;8.90;;;;;;;21.16;73.27;99807.35;129024;1276;127988;-77
2023/05/16 05:29:41;;;;;;;;;;;;;;;;;;;;;
2023/05/16 05:33:59;;;;;;;8.80;7.90;;;;;;;21.46;70.25;99823.93;121815;1305;5665283;-76
2023/05/16 05:42:22;;;;;;;;;;;;;;;;;;;;;
2023/05/16 05:46:27;;;;;;;10.40;8.70;;;;;;;21.49;66.87;99842.19;127700;1294;128576;-75
2023/05/16 05:50:22;;;;;;;;;;;;;;;;;;;;;
2023/05/16 05:54:24;;;;;;;11.50;7.80;;;;;;;21.68;65.91;99852.42;122301;1298;5445482;-74
2023/05/16 05:58:23;;;;;;;;;;;;;;;;;;;;;
2023/05/16 06:06:46;;;;;;;10.60;7.50;;;;;;;22.13;63.28;99825.93;126691;1294;636146;-77
2023/05/16 06:10:49;;;;;;;8.50;7.40;;;;;;;22.23;62.83;99827.04;128872;1278;128818;-77
2023/05/16 06:14:51;;;;;;;8.60;7.30;;;;;;;22.36;62.35;99831.09;128222;1281;115225;-76
2023/05/16 06:18:53;;;;;;;;;;;;;;;;;;;;;
2023/05/16 06:35:30;;;;;;;8.50;7.50;;;;;;;23.12;59.39;99839.86;126417;1310;637488;-71
2023/05/16 06:39:33;;;;;;;8.50;7.50;;;;;;;23.11;59.44;99842.39;127589;1281;127615;-76
2023/05/16 06:43:36;;;;;;;14.30;7.20;;;;;;;23.19;58.92;99848.91;126431;1295;115020;-77
2023/05/16 06:47:37;;;;;;;12.40;8.00;;;;;;;23.25;58.70;99853.23;122033;1304;5459070;-77
2023/05/16 06:51:38;;;;;;;;;;;;;;;;;;;;;
2023/05/16 06:55:40;;;;;;;8.80;8.00;;;;;;;23.16;57.28;99856.77;124916;1321;116638;-74
2023/05/16 07:04:01;;;;;;;10.30;8.00;;;;;;;23.08;57.15;99864.14;126649;1294;637032;-78
2023/05/16 07:12:06;;;;;;;8.90;8.00;;;;;;;23.30;56.12;99863.61;127000;1301;115398;-75
2023/05/16 07:16:10;;;;;;;8.80;8.00;;;;;;;23.58;56.40;99857.69;123007;1290;5438144;-76
2023/05/16 07:20:13;;;;;;;9.50;8.50;;;;;;;24.02;55.91;99855.83;125632;1323;114980;-76
2023/05/16 07:23:56;;;;;;;8.40;7.60;;;;;;;24.44;55.33;99852.52;124917;1312;114892;-70
2023/05/16 07:32:32;;;;;;;10.10;9.00;;;;;;;24.71;53.94;99851.56;125843;1307;639397;-74
2023/05/16 07:36:34;;;;;;;9.60;8.50;;;;;;;24.66;53.32;99850.34;128068;1283;128026;-76
2023/05/16 07:40:37;;;;;;;10.10;9.10;;;;;;;24.82;53.09;99847.61;126654;1296;115178;-76
2023/05/16 07:44:41;;;;;;;7.80;7.20;;;;;;;24.85;52.43;99851.94;122340;1295;5532402;-77
2023/05/16 07:48:42;;;;;;;8.00;7.30;;;;;;;25.07;52.78;99852.03;125736;1297;114905;-76
2023/05/16 07:52:42;;;;;;;;;;;;;;;;;;;;;
2023/05/16 08:00:54;;;;;;;9.40;7.80;;;;;;;24.76;51.44;99860.13;125860;1297;638707;-77
2023/05/16 08:04:37;;;;;;;;;;;;;;;24.58;51.37;99865.65;127320;1290;120913;-76
2023/05/16 08:08:40;;;;;;;9.40;7.80;;;;;;;24.31;51.25;99872.81;127015;1283;116403;-77
2023/05/16 08:16:48;;;;;;;6.80;6.00;;;;;;;24.65;51.31;99875.52;122315;1296;114964;-77
2023/05/16 08:20:12;;;;;;;7.20;6.40;;;;;;;24.75;50.75;99880.42;125097;1321;114881;-77
2023/05/16 08:24:06;;;;;;;;;;;;;;;;;;;;;
2023/05/16 08:32:28;;;;;;;8.60;7.70;;;;;;;25.39;50.39;99891.54;126581;1294;636005;-77
2023/05/16 08:36:33;;;;;;;8.50;7.40;;;;;;;25.74;49.81;99904.47;128378;1278;128969;-76
2023/05/16 08:44:46;;;;;;;;;;;;;;;;;;;;;
2023/05/16 08:48:50;;;;;;;7.70;6.40;;;;;;;25.48;48.73;99912.49;127766;1285;114923;-76
2023/05/16 09:05:15;;;;;;;6.60;5.90;;;;;;;25.65;48.34;99923.43;127326;1289;636416;-75
2023/05/16 09:09:11;;;;;;;7.60;5.90;;;;;;;25.64;47.67;99919.34;128648;1276;119324;-77
2023/05/16 09:13:11;;;;;;;8.30;6.70;;;;;;;25.50;47.51;99926.25;128233;1280;115321;-77
2023/05/16 09:17:17;;;;;;;;;;;;;;;;;;;;;
2023/05/16 09:29:56;;;;;;;;;;;;;;;;;;;;;
2023/05/16 09:33:49;;;;;;;8.70;5.70;;;;;;;25.74;47.42;99941.43;128727;1278;120312;-73
2023/05/16 09:46:25;;;;;;;11.40;6.60;;;;;;;25.89;46.38;99973.66;125659;1303;115108;-72
2023/05/16 09:50:26;;;;;;;7.40;6.20;;;;;;;25.74;46.38;99982.60;125353;1301;115032;-72
2023/05/16 09:58:51;;;;;;;8.50;5.80;;;;;;;25.01;45.60;99987.53;126528;1294;635904;-71
2023/05/16 10:02:54;;;;;;;8.00;6.40;;;;;;;24.44;45.71;99991.46;128586;1278;127681;-72
2023/05/16 10:06:47;;;;;;;8.40;7.10;;;;;;;24.08;45.73;99997.13;127551;1281;114974;-76
2023/05/16 10:10:12;;;;;;;;;;;;;;;23.83;46.02;99998.77;122717;1294;5451505;-75
2023/05/16 10:14:15;;;;;;;8.10;5.90;;;;;;;23.73;46.87;99997.14;126666;1293;114840;-73
2023/05/16 10:18:17;;;;;;;9.50;5.90;;;;;;;23.78;47.37;99991.02;126127;1294;114944;-69
2023/05/16 10:22:16;;;;;;;7.00;5.20;;;;;;;23.94;47.53;99991.09;126197;1298;127148;-74
2023/05/16 10:26:24;;;;;;;10.80;5.20;;;;;;;23.95;46.95;99983.05;125536;1307;114942;-76
2023/05/16 10:38:17;;;;;;;;;;;;;;;;;;;;;
2023/05/16 10:46:30;;;;;;;;;;;;;;;;;;;;;
2023/05/16 10:50:25;;;;;;;7.30;6.60;;;;;;;23.81;46.64;99989.27;126811;1265;5438811;-71
2023/05/16 10:54:23;;;;;;;;;;;;;;;;;;;;;
2023/05/16 10:58:26;;;;;;;8.80;7.20;;;;;;;23.74;47.29;99980.73;126894;1292;114862;-71
2023/05/16 11:06:38;;;;;;;9.40;8.30;;;;;;;23.75;47.21;99982.81;125698;1300;114978;-73
2023/05/16 11:10:48;;;;;;;7.90;6.80;;;;;;;23.68;47.15;99983.59;125496;1307;114963;-71
2023/05/16 11:18:53;;;;;;;;;;;;;;;;;;;;;
2023/05/16 11:23:35;;;;;;;12.60;10.90;;;;;;;23.71;47.53;99968.17;126074;1298;639035;-75
2023/05/16 11:27:29;;;;;;;;;;;;;;;;;;;;;
2023/05/16 11:30:54;;;;;;;;;;;;;;;23.40;47.35;99974.05;127531;1289;114904;-73
2023/05/16 11:34:30;;;;;;;14.10;10.70;;;;;;;23.47;48.13;99981.27;127047;1291;114960;-70
2023/05/16 11:38:15;;;;;;;14.20;12.80;;;;;;;23.61;48.06;99981.88;123454;1290;114958;-72
2023/05/16 11:46:26;;;;;;;14.00;11.60;;;;;;;23.54;48.21;99969.05;127311;1296;114894;-71
2023/05/16 11:50:19;;;;;;;13.60;12.10;;;;;;;23.46;48.00;99969.22;127502;1306;128837;-72
2023/05/16 11:54:22;;;;;;;12.80;11.60;;;;;;;23.42;48.13;99972.65;126666;1296;115114;-72
2023/05/16 11:58:20;;;;;;;13.00;10.30;;;;;;;23.42;48.22;99974.46;126057;1302;114954;-68
2023/05/16 12:02:10;;;;;;;;;;;;;;;;;;;;;
2023/05/16 12:06:02;;;;;;;12.10;10.50;;;;;;;23.59;48.00;99984.10;125490;1307;115395;-71
2023/05/16 12:10:06;;;;;;;14.40;10.70;;;;;;;23.67;47.97;99987.89;124340;1315;128655;-73
2023/05/16 12:13:40;;;;;;;10.30;9.30;;;;;;;23.75;48.04;99990.27;125273;1318;114869;-72
2023/05/16 12:16:58;;;;;;;12.80;11.00;;;;;;;23.75;47.46;99986.64;124454;1313;114982;-72
2023/05/16 12:20:58;;;;;;;;;;;;;;;;;;;;;
2023/05/16 12:29:02;;;;;;;;;;;;;;;;;;;;;
2023/05/16 12:33:09;;;;;;;16.30;12.20;;;;;;;23.52;48.15;99992.60;128231;1284;128918;-68
2023/05/16 12:36:33;;;;;;;;;;;;;;;;;;;;;
2023/05/16 12:39:58;;;;;;;15.70;12.60;;;;;;;23.21;48.08;99993.27;128912;1276;114757;-71
2023/05/16 12:43:52;;;;;;;15.10;12.20;;;;;;;22.96;48.19;99999.88;124996;1271;5453914;-71
2023/05/16 12:47:39;;;;;;;14.30;12.80;;;;;;;22.80;48.38;100009.61;127941;1285;114947;-67
2023/05/16 12:51:13;;;;;;;13.90;12.50;;;;;;;22.60;48.44;100009.31;128277;1280;114842;-73
2023/05/16 12:54:49;;;;;;;;;;;;;;;;;;;;;
2023/05/16 12:58:42;;;;;;;13.90;12.40;;;;;;;22.30;49.06;100009.61;128282;1298;115466;-70
2023/05/16 13:02:45;;;;;;;15.40;13.70;;;;;;;22.23;49.09;100015.25;128026;1279;115331;-74
2023/05/16 13:06:49;;;;;;;16.80;13.80;;;;;;;21.99;49.43;100015.00;127379;1289;114848;-75
2023/05/16 13:10:19;;;;;;;14.30;12.80;;;;;;;21.87;49.76;100014.65;126504;1292;114935;-72
2023/05/16 13:14:58;;;;;;;16.30;13.90;;;;;;;21.78;50.00;100020.09;127016;1289;130155;-71
2023/05/16 13:18:39;;;;;;;15.80;14.30;;;;;;;21.60;50.01;100023.63;126635;1291;116666;-73
2023/05/16 13:22:31;;;;;;;18.70;13.30;;;;;;;21.44;50.43;100017.44;126487;1293;114859;-70
2023/05/16 13:26:23;;;;;;;;;;;;;;;;;;;;;
2023/05/16 13:30:25;;;;;;;16.90;13.30;;;;;;;20.94;50.76;100014.03;125902;1295;114851;-67
2023/05/16 13:42:08;;;;;;;;;;;;;;;;;;;;;
2023/05/16 13:46:14;;;;;;;17.50;15.20;;;;;;;20.02;52.10;100040.13;129156;1273;115237;-67
2023/05/16 13:50:10;;;;;;;26.10;17.50;;;;;;;19.77;52.39;100041.84;127724;1292;114960;-72
2023/05/16 13:58:15;;;;;;;17.20;15.40;;;;;;;19.34;52.86;100053.05;126188;1299;114916;-75
2023/05/16 14:02:10;;;;;;;20.80;16.30;;;;;;;19.19;53.40;100050.55;125773;1302;114954;-69
2023/05/16 14:06:11;;;;;;;22.30;15.90;;;;;;;19.07;53.56;100047.66;125190;1319;129636;-71
2023/05/16 14:10:11;;;;;;;;;;;;;;;;;;;;;
2023/05/16 14:18:34;;;;;;;28.50;20.50;;;;;;;18.87;55.12;100053.02;126292;1295;636097;-75
2023/05/16 14:22:20;;;;;;;24.90;20.70;;;;;;;18.71;55.06;100051.52;127748;1280;129068;-74
2023/05/16 14:26:24;;;;;;;23.50;20.30;;;;;;;18.54;55.18;100049.39;128391;1278;114877;-73
2023/05/16 14:29:59;;;;;;;;;;;;;;;;;;;;;
2023/05/16 14:34:03;;;;;;;32.30;21.30;;;;;;;18.17;55.87;100044.18;126914;1297;114800;-74
2023/05/16 14:38:06;;;;;;;32.40;25.10;;;;;;;18.00;56.32;100042.20;126386;1313;114893;-70
2023/05/16 14:41:41;;;;;;;34.70;23.90;;;;;;;17.79;56.67;100043.73;126261;1309;127929;-70
2023/05/16 14:45:15;;;;;;;;;;;;;;;;;;;;;
2023/05/16 14:48:40;;;;;;;35.20;25.90;;;;;;;17.46;57.33;100050.67;126227;1309;114881;-74
2023/05/16 14:52:47;;;;;;;32.80;23.70;;;;;;;17.28;57.41;100047.61;126439;1295;114738;-72
2023/05/16 15:01:13;;;;;;;37.20;25.40;;;;;;;16.91;58.32;100038.97;126083;1300;637619;-70
2023/05/16 15:05:49;;;;;;;;;;;;;;;;;;;;;
2023/05/16 15:14:02;;;;;;;35.40;24.60;;;;;;;16.55;59.38;100046.13;122330;1293;5436475;-76
2023/05/16 15:18:39;;;;;;;;;;;;;;;;;;;;;
2023/05/16 15:22:09;;;;;;;;;;;;;;;;;;;;;
2023/05/16 15:30:50;;;;;;;33.20;22.40;;;;;;;16.19;60.56;100070.58;126669;1305;634849;-71
2023/05/16 15:34:53;;;;;;;32.90;23.20;;;;;;;16.14;60.87;100075.60;127097;1307;128565;-74
2023/05/16 15:38:46;;;;;;;;;;;;;;;;;;;;;
2023/05/16 15:46:35;;;;;;;;;;;;;;;;;;;;;
2023/05/16 15:54:18;;;;;;;28.40;20.30;;;;;;;15.71;61.46;100089.66;124100;1319;114888;-75
2023/05/16 15:58:09;;;;;;;24.30;18.50;;;;;;;15.63;61.61;100092.36;124026;1327;129761;-75
2023/05/16 16:06:21;;;;;;;31.50;23.20;;;;;;;15.55;62.08;100096.22;126360;1294;636137;-74
2023/05/16 16:10:25;;;;;;;33.70;24.20;;;;;;;15.49;62.60;100092.33;128464;1274;128857;-74
2023/05/16 16:14:17;;;;;;;;;;;;;;;;;;;;;
2023/05/16 16:18:26;;;;;;;33.90;23.00;;;;;;;15.33;63.13;100090.56;126992;1306;5461519;-68
2023/05/16 16:26:30;;;;;;;;;;;;;;;;;;;;;
2023/05/16 16:34:55;;;;;;;30.00;23.80;;;;;;;15.00;64.28;100097.45;126301;1305;635832;-74
2023/05/16 16:38:46;;;;;;;28.10;22.70;;;;;;;14.86;64.30;100098.80;129083;1268;129077;-73
2023/05/16 16:42:51;;;;;;;28.40;22.20;;;;;;;14.73;64.96;100100.94;127737;1294;115339;-74
2023/05/16 16:46:51;;;;;;;26.10;21.50;;;;;;;14.63;65.08;100113.65;122932;1287;5509122;-74
2023/05/16 16:50:49;;;;;;;29.00;21.90;;;;;;;14.53;65.26;100123.38;126842;1293;114906;-69
2023/05/16 16:54:40;;;;;;;29.20;21.00;;;;;;;14.41;65.43;100121.23;126737;1304;114948;-73
2023/05/16 17:07:16;;;;;;;34.20;22.70;;;;;;;14.26;66.19;100127.54;125756;1302;639087;-70
2023/05/16 17:11:21;;;;;;;30.00;22.40;;;;;;;14.15;66.45;100131.10;128275;1273;127619;-71
2023/05/16 17:15:21;;;;;;;34.10;23.00;;;;;;;14.09;66.52;100133.52;128448;1290;115275;-71
2023/05/16 17:19:23;;;;;;;31.00;22.90;;;;;;;14.02;66.79;100145.09;124088;1283;5452769;-73
2023/05/16 17:23:26;;;;;;;30.00;22.20;;;;;;;13.95;67.03;100144.84;127593;1283;114887;-74
2023/05/16 17:27:18;;;;;;;;;;;;;;;;;;;;;
2023/05/16 17:30:56;;;;;;;;;;;;;;;;;;;;;
2023/05/16 17:39:18;;;;;;;;;;;;;;;;;;;;;
2023/05/16 17:43:23;;;;;;;27.60;21.90;;;;;;;13.70;67.99;100163.02;127500;1287;128171;-74
2023/05/16 17:47:13;;;;;;;;;;;;;;;;;;;;;
2023/05/16 17:51:17;;;;;;;31.50;23.60;;;;;;;13.59;68.48;100170.70;122715;1292;5526775;-71
2023/05/16 18:11:55;;;;;;;;;;;;;;;;;;;;;
2023/05/16 18:15:57;;;;;;;31.70;23.80;;;;;;;13.20;70.12;100185.14;125475;1322;115181;-72
2023/05/16 18:28:19;;;;;;;;;;;;;;;;;;;;;
2023/05/16 18:32:27;;;;;;;;;;;;;;;;;;;;;
2023/05/16 18:36:31;;;;;;;37.40;25.60;;;;;;;12.91;71.39;100191.03;121773;1308;5627801;-69
2023/05/16 18:40:33;;;;;;;34.00;26.90;;;;;;;12.88;71.63;100196.06;125791;1301;114935;-74
2023/05/16 18:44:54;;;;;;;35.20;26.30;;;;;;;12.85;71.97;100199.46;124448;1326;114977;-74
2023/05/16 18:53:11;;;;;;;36.60;27.80;;;;;;;12.82;72.20;100211.32;125371;1310;637862;-74
2023/05/16 18:57:14;;;;;;;32.10;25.90;;;;;;;12.77;72.28;100217.30;127467;1287;127101;-70
2023/05/16 19:01:46;;;;;;;36.90;27.50;;;;;;;12.73;72.34;100221.46;126871;1295;115233;-70
2023/05/16 19:05:12;;;;;;;41.50;28.60;;;;;;;12.72;73.04;100230.69;122599;1316;5433265;-70
2023/05/16 19:18:17;;;;;;;;;;;;;;;;;;;;;
2023/05/16 19:22:49;;;;;;;38.50;28.20;;;;;;;12.65;73.75;100239.58;128878;1276;128038;-70
2023/05/16 19:27:23;;;;;;;37.60;28.90;;;;;;;12.59;73.63;100240.59;128159;1300;115396;-66
2023/05/16 19:31:08;;;;;;;38.00;30.70;;;;;;;12.56;74.08;100239.55;127252;1288;386955;-73
2023/05/16 19:35:10;;;;;;;;;;;;;;;;;;;;;
2023/05/16 19:39:12;;;;;;;43.70;30.30;;;;;;;12.48;74.35;100249.66;125235;1307;114947;-74
2023/05/16 19:47:50;;;;;;;38.30;31.30;;;;;;;12.43;74.58;100253.36;125725;1299;636010;-74
2023/05/16 19:51:52;;;;;;;37.10;29.90;;;;;;;12.36;74.65;100255.52;126990;1288;128760;-73
2023/05/16 19:55:54;;;;;;;42.00;30.30;;;;;;;12.34;75.25;100266.90;126023;1302;117277;-72
2023/05/16 20:04:45;;;;;;;;;;;;;;;;;;;;;
2023/05/16 20:08:48;;;;;;;35.90;26.60;;;;;;;12.34;75.14;100265.85;126679;1295;127938;-71
2023/05/16 20:12:50;;;;;;;38.10;28.20;;;;;;;12.29;75.31;100268.64;125082;1315;114995;-70
2023/05/16 20:16:37;;;;;;;34.40;25.00;;;;;;;12.22;75.46;100266.73;121483;1308;5452159;-73
2023/05/16 20:20:37;;;;;;;;;;;;;;;;;;;;;
2023/05/16 20:24:20;;;;;;;;;;;;;;;;;;;;;
2023/05/16 20:28:54;;;;;;;28.00;23.40;;;;;;;11.94;75.60;100281.36;125602;1297;638510;-72
2023/05/16 20:32:47;;;;;;;33.60;21.40;;;;;;;11.81;75.80;100270.94;127728;1280;128504;-74
2023/05/16 20:40:53;;;;;;;;;;;;;;;;;;;;;
2023/05/16 20:44:44;;;;;;;;;;;;;;;;;;;;;
2023/05/16 20:48:46;;;;;;;33.60;21.20;;;;;;;11.61;76.13;100288.50;125791;1319;114816;-71
2023/05/16 20:52:48;;;;;;;27.60;20.90;;;;;;;11.57;76.06;100282.47;125520;1316;129000;-70
2023/05/16 20:56:18;;;;;;;30.70;20.80;;;;;;;11.50;76.14;100280.68;124731;1331;116487;-73
2023/05/16 21:08:50;;;;;;;25.10;20.50;;;;;;;11.39;76.52;100308.08;127478;1286;127590;-73
2023/05/16 21:16:54;;;;;;;28.30;21.80;;;;;;;11.31;76.97;100312.79;121934;1298;5496343;-72
2023/05/16 21:20:48;;;;;;;29.70;23.80;;;;;;;11.27;77.23;100311.91;124190;1315;114937;-72
2023/05/16 21:24:43;;;;;;;;;;;;;;;;;;;;;
2023/05/16 21:28:28;;;;;;;28.60;23.40;;;;;;;11.20;77.65;100311.20;123577;1337;115329;-70
2023/05/16 21:32:24;;;;;;;;;;;;;;;;;;;;;
2023/05/16 21:36:58;;;;;;;32.20;24.30;;;;;;;11.19;77.82;100307.88;125719;1303;639715;-72
2023/05/16 21:45:58;;;;;;;31.80;24.10;;;;;;;11.16;78.35;100303.71;125716;1302;640167;-73
2023/05/16 21:49:28;;;;;;;;;;;;;;;;;;;;;
2023/05/16 21:53:26;;;;;;;30.80;23.40;;;;;;;11.12;78.31;100308.93;126426;1307;114881;-72
2023/05/16 21:57:27;;;;;;;31.80;23.00;;;;;;;11.10;78.59;100305.98;121782;1302;5521427;-71
2023/05/16 22:01:20;;;;;;;;;;;;;;;;;;;;;
2023/05/16 22:09:57;;;;;;;30.80;23.80;;;;;;;11.09;78.80;100302.67;126573;1306;636373;-72
2023/05/16 22:13:53;;;;;;;39.30;23.70;;;;;;;11.04;79.07;100305.60;127907;1293;128058;-71
2023/05/16 22:17:56;;;;;;;29.10;21.10;;;;;;;11.02;78.95;100308.71;127252;1295;114792;-74
2023/05/16 22:25:48;;;;;;;;;;;;;;;;;;;;;
2023/05/16 22:38:47;;;;;;;37.40;23.50;;;;;;;10.95;79.47;100308.91;127786;1284;127688;-72
2023/05/16 22:42:39;;;;;;;28.90;22.10;;;;;;;10.95;79.64;100309.43;127106;1309;115444;-75
2023/05/16 22:46:42;;;;;;;28.50;21.40;;;;;;;10.93;79.75;100306.66;122137;1291;5430284;-72
2023/05/16 22:54:46;;;;;;;29.90;24.60;;;;;;;10.90;80.08;100308.60;125737;1312;114916;-73
2023/05/16 23:03:18;;;;;;;;;;;;;;;;;;;;;
2023/05/16 23:07:15;;;;;;;33.10;22.80;;;;;;;10.88;80.25;100302.81;127735;1286;128409;-74
2023/05/16 23:11:00;;;;;;;36.40;24.00;;;;;;;10.85;80.48;100307.77;126932;1309;115325;-74
2023/05/16 23:15:00;;;;;;;;;;;;;;;;;;;;;
2023/05/16 23:18:56;;;;;;;30.00;22.60;;;;;;;10.79;80.53;100319.71;125710;1304;115048;-74
2023/05/16 23:22:57;;;;;;;35.50;22.20;;;;;;;10.77;80.71;100321.58;124531;1311;115163;-72
2023/05/16 23:31:26;;;;;;;28.50;21.90;;;;;;;10.75;80.32;100314.21;125718;1303;638705;-74
2023/05/16 23:39:31;;;;;;;29.40;22.00;;;;;;;10.70;80.97;100311.23;126526;1294;115233;-75
2023/05/16 23:47:17;;;;;;;;;;;;;;;;;;;;;
2023/05/16 23:51:14;;;;;;;;;;;;;;;;;;;;;
2023/05/16 23:59:50;;;;;;;29.70;22.50;;;;;;;10.65;81.22;100321.13;125651;1301;639246;-73
